Latest Weather Observations for Gabo Island

IDV60801

Issued at 7:35 pm EST Friday 18 April 2014 (issued every 30 minutes, with the page automatically refreshed every 10 minutes)

About weather observations | Map of weather stations | Latest weather observations for VIC | Other Formats
Station Details ID: 084016 Name: GABO ISLAND LIGHTHOUSE Lat: -37.57 Lon: 149.92 Height: 15.2 m
Data from the previous 72 hours. | See also: Recent months at Gabo Island
Date/Time
EST
Temp
°C
App
Temp
°C
Dew
Point
Rel
Hum
%
Delta-T
°C
Wind Press
QNH
hPa
Press
MSL
hPa
Rain
since 9 am
mm
Dir
 
Spd
km/h
Gust
km/h
Spd
kts
Gust
kts
18/07:30pm 15.0 8.2 12.1 83 1.6 W 39 46 21 25 1014.1 - 0.8
18/07:00pm 15.2 8.1 12.3 83 1.6 W 41 50 22 27 1013.9 - 0.8
18/06:30pm 15.1 8.8 12.4 84 1.5 W 37 50 20 27 1013.8 - 0.8
18/06:00pm 15.1 9.4 12.9 87 1.2 W 35 46 19 25 1013.8 1013.7 0.8
18/05:30pm 15.3 8.4 12.9 85 1.3 W 41 50 22 27 1013.3 - 0.8
18/05:00pm 15.6 8.1 14.0 90 0.9 WSW 46 57 25 31 1012.7 - 0.6
18/04:42pm 16.4 8.8 13.7 84 1.5 SW 46 74 25 40 1012.3 - 0.0
18/04:30pm 16.6 8.6 13.6 82 1.7 WSW 48 63 26 34 1012.1 - 0.0
18/04:00pm 17.8 7.0 13.6 76 2.4 SW 63 82 34 44 1011.2 - 0.0
18/03:56pm 18.1 8.1 13.7 75 2.5 SW 59 78 32 42 1011.0 - 0.0
18/03:43pm 19.2 8.9 14.0 72 3.0 SW 61 67 33 36 1010.7 - 0.0
18/03:32pm 19.7 12.8 12.8 64 3.9 SW 41 63 22 34 1010.4 - 0.0
18/03:30pm 20.1 14.2 13.7 66 3.7 SW 37 48 20 26 1010.4 - 0.0
18/03:27pm 20.0 14.8 13.5 66 3.7 SW 33 46 18 25 1010.4 - 0.0
18/03:00pm 20.3 16.7 12.9 62 4.2 SSW 24 28 13 15 1010.2 1010.3 0.0
18/02:30pm 21.0 19.3 12.5 58 4.8 WSW 13 20 7 11 1010.3 - 0.0
18/02:00pm 21.5 20.0 13.1 58 4.8 SSW 13 15 7 8 1010.4 - 0.0
18/01:30pm 20.9 17.7 11.8 56 5.1 SW 20 28 11 15 1010.9 - 0.0
18/01:00pm 22.0 18.5 12.3 54 5.5 WSW 22 30 12 16 1011.3 - 0.0
18/12:30pm 21.8 18.8 12.0 53 5.5 WSW 19 24 10 13 1011.6 - 0.0
18/12:00pm 21.4 19.8 12.8 58 4.9 WSW 13 17 7 9 1012.1 1012.2 0.0
18/11:30am 20.6 18.6 12.6 60 4.5 W 15 19 8 10 1012.8 - 0.0
18/11:00am 20.6 18.8 12.2 58 4.7 W 13 20 7 11 1013.2 - 0.0
18/10:30am 20.8 18.6 12.0 57 4.9 WNW 15 19 8 10 1013.4 - 0.0
18/10:00am 19.5 17.4 11.3 59 4.5 WNW 13 17 7 9 1013.8 - 0.0
18/09:30am 18.6 17.1 11.9 65 3.7 WNW 11 15 6 8 1014.1 - 0.0
18/09:00am 17.7 15.9 10.8 64 3.7 NW 11 13 6 7 1014.4 1014.4 0.0
18/08:30am 16.6 14.5 11.2 70 2.9 NW 13 17 7 9 1014.6 - 0.0
18/08:00am 15.3 13.2 12.4 83 1.6 WNW 15 17 8 9 1014.7 - 0.0
18/07:30am 14.8 13.0 12.0 83 1.5 WNW 13 17 7 9 1014.7 - 0.0
18/07:00am 13.9 11.5 11.3 84 1.4 WNW 15 19 8 10 1014.7 - 0.0
18/06:30am 12.9 10.6 11.8 93 0.6 WNW 15 17 8 9 1014.9 - 0.0
18/06:00am 12.6 11.0 11.7 94 0.5 WNW 11 13 6 7 1014.9 1014.9 0.0
18/05:30am 12.7 10.7 11.6 93 0.6 WNW 13 15 7 8 1015.1 - 0.0
18/05:00am 12.8 10.9 11.7 93 0.6 WNW 13 13 7 7 1015.3 - 0.0
18/04:30am 13.0 10.7 11.9 93 0.6 WNW 15 17 8 9 1015.6 - 0.0
18/04:00am 13.3 11.5 12.0 92 0.7 WNW 13 15 7 8 1015.7 - 0.0
18/03:30am 13.6 11.5 12.3 92 0.7 WNW 15 17 8 9 1015.9 - 0.0
18/03:00am 14.2 12.5 12.5 89 0.9 NW 13 15 7 8 1016.2 1016.3 0.0
18/02:30am 14.1 12.4 12.6 91 0.8 NW 13 15 7 8 1016.6 - 0.0
18/02:00am 14.3 12.9 13.4 94 0.5 WNW 13 17 7 9 1016.9 - 0.0
18/01:30am 14.5 12.2 11.7 83 1.5 NW 15 17 8 9 1017.2 - 0.0
18/01:00am 14.4 12.3 12.4 88 1.1 NW 15 17 8 9 1017.6 - 0.0
18/12:30am 14.6 12.9 12.4 87 1.2 NW 13 17 7 9 1017.8 - 0.0
18/12:00am 14.8 12.6 12.2 84 1.4 WNW 15 17 8 9 1018.1 1018.2 0.0
 
Date/Time
EST
Temp
°C
App
Temp
°C
Dew
Point
Rel
Hum
%
Delta-T
°C
Wind Press
QNH
hPa
Press
MSL
hPa
Rain
since 9 am
mm
Dir
 
Spd
km/h
Gust
km/h
Spd
kts
Gust
kts
17/11:30pm 14.7 12.6 12.3 85 1.3 WNW 15 17 8 9 1018.5 - 0.0
17/11:00pm 14.8 12.7 12.4 85 1.3 NW 15 17 8 9 1018.8 - 0.0
17/10:30pm 14.9 12.8 12.5 85 1.3 NW 15 17 8 9 1019.0 - 0.0
17/10:00pm 14.8 13.1 12.6 87 1.2 NW 13 15 7 8 1019.3 - 0.0
17/09:30pm 15.2 13.5 12.6 84 1.4 WNW 13 15 7 8 1019.4 - 0.0
17/09:00pm 16.1 14.4 12.3 78 2.1 WNW 13 15 7 8 1019.4 1019.5 0.0
17/08:30pm 17.0 16.1 11.5 70 3.0 S 7 11 4 6 1019.6 - 0.0
17/08:00pm 17.3 16.4 11.4 68 3.2 SSE 7 11 4 6 1019.5 - 0.0
17/07:30pm 17.6 15.6 11.5 67 3.3 SSE 13 17 7 9 1019.4 - 0.0
17/07:00pm 17.6 15.2 11.5 67 3.3 SSE 15 20 8 11 1019.2 - 0.0
17/06:30pm 17.8 15.7 12.4 70 3.0 SSW 15 19 8 10 1019.1 - 0.0
17/06:00pm 17.7 15.1 12.1 69 3.1 S 17 20 9 11 1019.1 1019.1 0.0
17/05:30pm 17.9 15.5 12.5 70 3.0 SSW 17 20 9 11 1019.2 - 0.0
17/05:00pm 18.4 15.4 12.7 69 3.2 SSW 20 26 11 14 1019.3 - 0.0
17/04:30pm 18.5 15.3 11.8 65 3.7 SSW 20 26 11 14 1019.3 - 0.0
17/04:00pm 18.8 15.3 12.3 66 3.6 SSW 22 26 12 14 1019.4 - 0.0
17/03:30pm 18.8 15.5 11.5 62 4.0 SSW 20 24 11 13 1019.5 - 0.0
17/03:00pm 19.2 16.1 11.5 61 4.2 SW 19 24 10 13 1019.6 1019.6 0.0
17/02:30pm 18.7 14.9 11.1 61 4.1 SSW 22 26 12 14 1019.7 - 0.0
17/02:00pm 19.3 16.3 11.9 62 4.1 SW 19 22 10 12 1019.8 - 0.0
17/01:30pm 19.1 16.1 12.7 66 3.6 SW 20 24 11 13 1019.9 - 0.0
17/01:00pm 18.9 16.1 12.6 67 3.5 WSW 19 24 10 13 1020.1 - 0.0
17/12:30pm 19.1 16.4 13.5 70 3.2 WSW 20 26 11 14 1020.4 - 0.0
17/12:00pm 18.1 15.3 12.5 70 3.1 WSW 19 24 10 13 1020.7 1020.7 0.0
17/11:30am 18.3 15.5 12.7 70 3.1 W 19 22 10 12 1021.0 - 0.0
17/11:00am 18.3 15.5 12.7 70 3.1 W 19 24 10 13 1021.1 - 0.0
17/10:30am 17.9 14.9 12.7 71 2.9 W 20 24 11 13 1021.2 - 0.0
17/10:00am 16.2 14.0 12.2 77 2.2 WNW 15 19 8 10 1021.1 - 0.0
17/09:30am 16.8 13.9 12.4 75 2.4 WNW 19 24 10 13 1021.1 - 0.0
17/09:00am 15.7 12.8 12.2 80 1.9 WNW 19 24 10 13 1021.2 1021.2 0.0
17/08:30am 15.5 12.3 11.8 78 2.0 W 20 26 11 14 1021.1 - 0.0
17/08:00am 14.4 11.6 11.4 82 1.6 WNW 17 22 9 12 1020.9 - 0.0
17/07:00am 14.6 11.4 11.4 81 1.7 W 19 26 10 14 1020.2 - 0.0
17/06:30am 13.8 11.6 10.9 83 1.5 WNW 13 17 7 9 1019.8 - 0.0
17/06:00am 13.7 10.7 10.6 81 1.6 WNW 17 20 9 11 1019.7 1019.7 0.0
17/05:30am 13.6 10.7 10.9 84 1.4 WNW 17 24 9 13 1019.6 - 0.0
17/05:00am 13.7 10.7 10.8 83 1.5 WNW 17 20 9 11 1019.5 - 0.0
17/04:30am 13.7 11.2 11.0 84 1.4 WNW 15 20 8 11 1019.3 - 0.0
17/04:00am 13.8 10.9 10.9 83 1.5 NW 17 20 9 11 1019.3 - 0.0
17/03:30am 13.9 11.0 11.1 83 1.5 NW 17 22 9 12 1019.1 - 0.0
17/03:00am 13.8 10.9 10.9 83 1.5 NW 17 22 9 12 1019.1 1019.2 0.0
17/02:30am 13.7 10.6 10.4 80 1.7 NW 17 22 9 12 1019.1 - 0.0
17/02:00am 14.4 11.1 8.1 66 3.1 WNW 15 20 8 11 1019.3 - 0.0
17/01:30am 14.3 11.8 10.9 80 1.8 WNW 15 19 8 10 1019.4 - 0.0
17/01:00am 14.3 11.5 11.3 82 1.6 NW 17 20 9 11 1019.6 - 0.0
17/12:30am 14.4 11.7 11.6 83 1.5 NW 17 20 9 11 1019.7 - 0.0
17/12:00am 14.6 11.8 11.4 81 1.7 NW 17 22 9 12 1019.9 1019.9 0.0
 
Date/Time
EST
Temp
°C
App
Temp
°C
Dew
Point
Rel
Hum
%
Delta-T
°C
Wind Press
QNH
hPa
Press
MSL
hPa
Rain
since 9 am
mm
Dir
 
Spd
km/h
Gust
km/h
Spd
kts
Gust
kts
16/11:30pm 14.4 11.7 11.6 83 1.5 NW 17 20 9 11 1020.0 - 0.0
16/11:00pm 14.6 11.8 11.4 81 1.7 NW 17 20 9 11 1020.2 - 0.0
16/10:30pm 14.6 11.9 11.6 82 1.6 WNW 17 20 9 11 1020.3 - 0.0
16/10:00pm 14.9 12.6 11.7 81 1.7 WNW 15 19 8 10 1020.5 - 0.0
16/09:30pm 15.5 13.6 11.8 78 2.0 WNW 13 20 7 11 1020.5 - 0.0
16/09:00pm 17.0 15.8 11.7 71 2.9 SSE 9 11 5 6 1020.4 1020.4 0.0
16/08:30pm 17.4 16.0 12.1 71 2.9 SSE 11 17 6 9 1020.3 - 0.0
16/08:00pm 17.6 15.7 11.9 69 3.1 SSE 13 17 7 9 1020.1 - 0.0
16/07:30pm 17.5 15.2 11.8 69 3.1 SE 15 20 8 11 1019.9 - 0.0
16/07:00pm 17.7 15.1 11.9 69 3.2 SSE 17 22 9 12 1019.8 - 0.0
16/06:30pm 17.6 14.4 10.0 61 4.0 S 17 20 9 11 1019.8 - 0.0
16/06:00pm 17.5 14.2 9.5 59 4.2 S 17 20 9 11 1019.6 1019.5 0.0
16/05:30pm 17.6 14.0 10.0 61 4.0 S 19 22 10 12 1019.3 - 0.0
16/05:00pm 17.9 14.6 11.7 67 3.4 SSW 20 26 11 14 1019.3 - 0.0
16/04:30pm 18.2 15.0 12.0 67 3.4 SSW 20 24 11 13 1019.3 - 0.0
16/04:00pm 18.2 14.9 11.6 65 3.6 SSW 20 24 11 13 1019.3 - 0.0
16/03:30pm 18.3 14.7 11.9 66 3.5 SSW 22 26 12 14 1019.4 - 0.0
16/03:00pm 18.3 15.2 12.1 67 3.4 SW 20 26 11 14 1019.5 1019.5 0.0
16/02:30pm 18.4 15.3 12.1 66 3.5 SW 20 26 11 14 1019.5 - 0.0
16/02:00pm 18.5 15.3 12.0 66 3.6 SSW 20 24 11 13 1019.6 - 0.0
16/01:30pm 18.3 15.5 11.3 63 3.8 SW 17 20 9 11 1019.8 - 0.0
16/01:00pm 18.7 16.4 11.8 64 3.8 WSW 15 19 8 10 1019.9 - 0.0
16/12:30pm 17.9 15.1 11.3 65 3.6 WSW 17 20 9 11 1020.2 - 0.0
16/12:00pm 18.1 15.8 11.9 67 3.4 W 15 17 8 9 1020.5 1020.5 0.0
16/11:30am 16.8 15.1 12.6 76 2.3 W 13 20 7 11 1020.8 - 0.0
16/11:00am 16.7 15.0 12.5 76 2.3 W 13 20 7 11 1021.2 - 0.0
16/10:30am 17.3 14.4 11.0 66 3.4 W 17 20 9 11 1021.4 - 0.0
16/10:00am 17.6 14.4 11.3 66 3.4 WNW 19 26 10 14 1021.5 - 0.0
16/09:30am 16.5 12.7 11.1 70 2.9 WNW 22 28 12 15 1021.7 - 0.0
16/09:00am 15.7 11.4 10.8 72 2.6 W 24 30 13 16 1021.9 1021.9 1.4
16/08:30am 15.2 12.0 11.1 76 2.2 W 19 26 10 14 1021.9 - 1.4
16/08:00am 15.1 11.8 10.9 76 2.2 W 19 24 10 13 1021.7 - 1.4
16/07:30am 14.2 10.9 10.8 80 1.8 W 19 26 10 14 1021.5 - 1.4
16/07:00am 14.4 10.8 10.6 78 2.0 W 20 24 11 13 1021.2 - 1.4
16/06:30am 14.0 10.9 10.3 78 1.9 WNW 17 22 9 12 1021.0 - 1.4
16/06:00am 14.3 11.6 10.5 78 2.0 WNW 15 20 8 11 1021.0 1021.0 1.4
16/05:30am 14.3 11.3 10.5 78 2.0 WNW 17 20 9 11 1020.9 - 1.4
16/05:00am 14.4 11.1 10.8 79 1.9 WNW 19 22 10 12 1020.9 - 1.4
16/04:30am 14.6 11.8 11.2 80 1.8 WNW 17 22 9 12 1020.9 - 1.4
16/04:00am 14.2 11.4 11.2 82 1.6 WNW 17 20 9 11 1021.0 - 1.4
16/03:30am 14.5 11.6 11.1 80 1.8 WNW 17 22 9 12 1021.0 - 1.4
16/03:00am 14.3 11.3 10.5 78 2.0 WNW 17 20 9 11 1021.0 1021.0 1.4
16/02:30am 14.6 11.7 11.0 79 1.9 WNW 17 22 9 12 1021.2 - 1.4
16/02:00am 15.2 11.8 10.4 73 2.5 WNW 19 22 10 12 1021.5 - 1.4
16/01:30am 17.2 11.2 7.1 51 5.0 S 28 35 15 19 1021.7 - 1.4
16/01:00am 17.1 12.0 7.8 54 4.7 S 24 32 13 17 1022.0 - 1.4
16/12:30am 17.1 11.6 7.5 53 4.8 S 26 32 14 17 1022.2 - 1.4
16/12:00am 17.3 12.0 8.5 56 4.5 S 26 33 14 18 1022.3 1022.3 1.4
 
Date/Time
EST
Temp
°C
App
Temp
°C
Dew
Point
Rel
Hum
%
Delta-T
°C
Wind Press
QNH
hPa
Press
MSL
hPa
Rain
since 9 am
mm
Dir
 
Spd
km/h
Gust
km/h
Spd
kts
Gust
kts
15/11:30pm 17.3 12.8 10.1 62 3.8 S 24 32 13 17 1022.5 - 1.4
15/11:00pm 17.5 13.4 10.1 62 3.9 S 22 28 12 15 1022.6 - 1.4
15/10:30pm 17.3 13.2 10.1 62 3.8 S 22 30 12 16 1022.8 - 1.4
15/10:00pm 17.5 12.6 10.1 62 3.9 S 26 32 14 17 1022.9 - 1.4
15/09:30pm 17.5 13.0 10.1 62 3.9 S 24 32 13 17 1022.9 - 1.4
15/09:00pm 17.4 13.0 10.4 63 3.7 S 24 30 13 16 1023.0 1023.0 1.4
15/08:30pm 17.3 12.4 11.2 67 3.3 S 28 33 15 18 1022.8 - 1.4
15/08:00pm 17.3 12.2 10.7 65 3.5 S 28 32 15 17 1022.7 - 1.4

Other Formats:

Comma delimited format used in spreadsheet applications
http://www.bom.gov.au/fwo/IDV60801/IDV60801.94933.axf

JavaScript Object Notation format (JSON) in row-major order
http://www.bom.gov.au/fwo/IDV60801/IDV60801.94933.json